createdAt,value
2023-09-02T00:12:35.616Z,101419.28
2023-09-02T00:42:36.132Z,101409.38
2023-09-02T01:05:29.468Z,101396.53
2023-09-02T01:42:44.853Z,101358.19
2023-09-02T02:02:39.627Z,101355.63
2023-09-02T02:12:27.121Z,101345.50
2023-09-02T02:22:40.537Z,101331.81
2023-09-02T03:42:39.737Z,101253.28
2023-09-02T04:02:24.687Z,101259.53
2023-09-02T04:07:28.168Z,101264.88
2023-09-02T04:12:30.353Z,101267.78
2023-09-02T08:07:22.554Z,101476.25
2023-09-02T08:12:29.369Z,101471.84
2023-09-02T12:32:35.449Z,101581.16
2023-09-02T15:12:45.470Z,101429.22
2023-09-02T15:32:24.772Z,101419.19
2023-09-02T15:41:19.956Z,101391.78
2023-09-02T15:49:28.644Z,101395.03
2023-09-02T15:54:31.101Z,101369.13
2023-09-02T15:59:33.211Z,101369.47
2023-09-02T16:04:38.683Z,101338.34
2023-09-02T16:09:40.894Z,101371.09
2023-09-02T16:14:43.082Z,101363.66
2023-09-02T16:19:45.495Z,101366.44
2023-09-02T16:24:49.050Z,101381.44
2023-09-02T16:29:53.747Z,101370.63
2023-09-02T16:34:55.929Z,101394.56
2023-09-02T16:40:00.408Z,101415.25
2023-09-02T16:45:12.014Z,101420.59
2023-09-02T16:50:17.127Z,101412.66
2023-09-02T16:55:26.355Z,101420.91
2023-09-02T17:00:35.354Z,101406.84
2023-09-02T17:05:50.674Z,101393.38
2023-09-02T17:10:58.600Z,101390.13
2023-09-02T17:16:01.348Z,101375.25
2023-09-02T17:21:21.194Z,101375.72
2023-09-02T17:26:24.877Z,101377.69
2023-09-02T17:31:32.655Z,101407.91
2023-09-02T17:36:36.048Z,101391.06
2023-09-02T17:47:34.886Z,101369.81
2023-09-02T17:52:45.856Z,101352.63
2023-09-02T17:58:04.472Z,101313.13
2023-09-02T18:03:28.573Z,101350.41
2023-09-02T18:08:57.414Z,101365.03
2023-09-02T18:14:02.301Z,101357.84
2023-09-02T18:19:11.092Z,101364.09
2023-09-02T18:24:17.212Z,101381.16
2023-09-02T18:29:22.071Z,101380.47
2023-09-02T18:34:25.946Z,101385.94
2023-09-02T18:39:40.210Z,101377.09
2023-09-02T18:44:51.049Z,101386.63
2023-09-02T18:50:02.038Z,101372.22
2023-09-02T18:55:13.598Z,101394.50
2023-09-02T19:00:18.741Z,101395.31
2023-09-02T19:05:35.145Z,101417.94
2023-09-02T19:10:44.139Z,101434.31
2023-09-02T19:15:48.383Z,101476.47
2023-09-02T19:21:01.117Z,101478.97
2023-09-02T19:26:05.617Z,101473.59
2023-09-02T19:31:11.428Z,101499.81
2023-09-02T19:36:15.912Z,101499.69
2023-09-02T19:41:36.993Z,101503.47
2023-09-02T19:46:41.327Z,101494.66
2023-09-02T19:51:50.760Z,101505.78
2023-09-02T19:56:57.875Z,101498.31
2023-09-02T20:02:05.506Z,101500.25
2023-09-02T20:07:14.578Z,101488.53
2023-09-02T20:12:22.620Z,101457.78
2023-09-02T20:17:27.284Z,101472.09
2023-09-02T20:28:09.139Z,101519.03
2023-09-02T20:33:22.477Z,101519.03
2023-09-02T20:38:29.589Z,101532.31
2023-09-02T20:43:37.144Z,101529.19
2023-09-02T20:48:41.363Z,101511.66
2023-09-02T20:53:48.375Z,101527.72
2023-09-02T20:58:57.895Z,101532.69
2023-09-02T21:04:03.452Z,101527.59
2023-09-02T21:09:09.518Z,101550.34
2023-09-02T21:14:13.136Z,101548.84
2023-09-02T21:19:18.801Z,101555.09
2023-09-02T21:24:30.952Z,101549.88
2023-09-02T21:29:45.099Z,101562.84
2023-09-02T21:34:50.142Z,101552.38
2023-09-02T21:39:54.064Z,101557.81
2023-09-02T21:45:01.348Z,101559.31
2023-09-02T21:50:06.705Z,101569.63
2023-09-02T21:55:15.274Z,101532.97
2023-09-02T22:00:23.155Z,101545.88
2023-09-02T22:05:31.740Z,101543.56
2023-09-02T22:10:44.046Z,101576.50
2023-09-02T22:15:50.515Z,101561.41
2023-09-02T22:20:57.259Z,101552.38
2023-09-02T22:26:07.706Z,101558.09
2023-09-02T22:31:13.578Z,101539.88
2023-09-02T22:41:41.306Z,101550.56
2023-09-02T22:46:49.197Z,101551.72
2023-09-02T22:51:54.433Z,101554.97
2023-09-02T22:57:01.859Z,101559.72
2023-09-02T23:02:11.174Z,101564.47
2023-09-02T23:07:17.112Z,101574.13
2023-09-02T23:12:24.593Z,101557.28
2023-09-02T23:17:31.284Z,101558.44
2023-09-02T23:22:39.570Z,101561.09
2023-09-02T23:27:52.093Z,101560.25
2023-09-02T23:32:56.152Z,101562.91
2023-09-02T23:38:08.232Z,101589.47
2023-09-02T23:43:15.430Z,101609.44
2023-09-02T23:48:21.615Z,101619.41
2023-09-02T23:53:27.570Z,101623.69
2023-09-02T23:58:33.334Z,101636.81
